createdAt,value
2023-02-14T00:00:04.509Z,5.98
2023-02-14T00:01:04.474Z,5.92
2023-02-14T00:02:04.485Z,5.99
2023-02-14T00:03:04.528Z,5.99
2023-02-14T00:04:04.436Z,5.93
2023-02-14T00:05:04.406Z,6.01
2023-02-14T00:06:04.399Z,5.98
2023-02-14T00:07:04.587Z,5.99
2023-02-14T00:08:04.360Z,6.05
2023-02-14T00:09:04.341Z,6.02
2023-02-14T00:10:04.320Z,6.01
2023-02-14T00:11:04.303Z,6.01
2023-02-14T00:12:04.329Z,5.99
2023-02-14T00:13:04.336Z,5.98
2023-02-14T00:14:04.257Z,6.03
2023-02-14T00:15:04.236Z,5.95
2023-02-14T00:16:04.303Z,6.03
2023-02-14T00:17:04.309Z,6.08
2023-02-14T00:18:04.208Z,6.01
2023-02-14T00:19:04.230Z,5.95
2023-02-14T00:20:04.151Z,5.99
2023-02-14T00:21:04.144Z,6.01
2023-02-14T00:22:04.168Z,5.96
2023-02-14T00:23:04.145Z,5.92
2023-02-14T00:24:04.082Z,5.93
2023-02-14T00:25:04.067Z,5.92
2023-02-14T00:26:04.070Z,5.96
2023-02-14T00:27:04.082Z,5.95
2023-02-14T00:28:04.012Z,5.96
2023-02-14T00:29:04.009Z,5.88
2023-02-14T00:30:04.009Z,5.98
2023-02-14T00:31:04.046Z,5.83
2023-02-14T00:32:04.034Z,5.84
2023-02-14T00:33:03.963Z,5.78
2023-02-14T00:34:03.918Z,5.83
2023-02-14T00:35:03.887Z,5.78
2023-02-14T00:36:03.862Z,5.78
2023-02-14T00:37:03.851Z,5.70
2023-02-14T00:38:03.874Z,5.75
2023-02-14T00:39:03.814Z,5.70
2023-02-14T00:40:03.809Z,5.73
2023-02-14T00:41:03.783Z,5.66
2023-02-14T00:42:03.777Z,5.80
2023-02-14T00:43:03.781Z,5.75
2023-02-14T00:44:03.745Z,5.80
2023-02-14T00:45:03.723Z,5.73
2023-02-14T00:46:03.769Z,5.63
2023-02-14T00:47:03.705Z,5.62
2023-02-14T00:48:03.692Z,5.65
2023-02-14T00:49:03.639Z,5.59
2023-02-14T00:50:03.625Z,5.48
2023-02-14T00:51:03.623Z,5.56
2023-02-14T00:52:03.589Z,5.45
2023-02-14T00:53:03.633Z,5.45
2023-02-14T00:54:03.566Z,5.41
2023-02-14T00:55:03.559Z,5.42
2023-02-14T00:56:03.528Z,5.48
2023-02-14T00:57:03.532Z,5.42
2023-02-14T00:58:03.605Z,5.40
2023-02-14T00:59:03.484Z,5.55
2023-02-14T01:00:03.460Z,5.48
2023-02-14T01:01:03.493Z,5.48
2023-02-14T01:02:03.422Z,5.51
2023-02-14T01:03:03.442Z,5.51
2023-02-14T01:04:03.388Z,5.49
2023-02-14T01:05:03.372Z,5.63
2023-02-14T01:06:03.347Z,5.65
2023-02-14T01:07:03.331Z,5.63
2023-02-14T01:08:03.344Z,5.59
2023-02-14T01:09:03.293Z,5.56
2023-02-14T01:10:03.276Z,5.63
2023-02-14T01:11:03.267Z,5.58
2023-02-14T01:12:03.244Z,5.66
2023-02-14T01:13:03.270Z,5.59
2023-02-14T01:14:03.230Z,5.60
2023-02-14T01:15:03.205Z,5.62
2023-02-14T01:16:03.219Z,5.55
2023-02-14T01:17:03.147Z,5.59
2023-02-14T01:18:03.163Z,5.55
2023-02-14T01:19:03.187Z,5.58
2023-02-14T01:20:03.120Z,5.52
2023-02-14T01:21:03.087Z,5.47
2023-02-14T01:22:03.097Z,5.49
2023-02-14T01:23:03.092Z,5.47
2023-02-14T01:24:03.076Z,5.47
2023-02-14T01:25:03.012Z,5.48
2023-02-14T01:26:02.999Z,5.44
2023-02-14T01:27:03.978Z,5.37
2023-02-14T01:28:03.007Z,5.51
2023-02-14T01:29:02.944Z,5.40
2023-02-14T01:30:02.988Z,5.45
2023-02-14T01:31:03.026Z,5.44
2023-02-14T01:32:03.047Z,5.41
2023-02-14T01:33:02.920Z,5.44
2023-02-14T01:34:02.890Z,5.44
2023-02-14T01:35:02.856Z,5.47
2023-02-14T01:36:02.829Z,5.45
2023-02-14T01:37:02.820Z,5.48
2023-02-14T01:38:02.831Z,5.45
2023-02-14T01:39:02.784Z,5.48
2023-02-14T01:40:02.766Z,5.42
2023-02-14T01:41:02.751Z,5.49
2023-02-14T01:42:02.751Z,5.42
2023-02-14T01:43:02.765Z,5.33
2023-02-14T01:44:02.703Z,5.45
2023-02-14T01:45:02.710Z,5.44
2023-02-14T01:46:02.735Z,5.47
2023-02-14T01:47:02.666Z,5.38
2023-02-14T01:48:02.666Z,5.35
2023-02-14T01:49:02.623Z,5.55
2023-02-14T01:50:02.608Z,5.45
2023-02-14T01:51:02.585Z,5.44
2023-02-14T01:52:04.141Z,5.49
2023-02-14T01:53:03.600Z,5.48
2023-02-14T01:54:02.557Z,5.49
2023-02-14T01:55:02.516Z,5.52
2023-02-14T01:56:02.502Z,5.48
2023-02-14T01:57:02.484Z,5.48
2023-02-14T01:58:02.513Z,5.51
2023-02-14T01:59:02.457Z,5.47
2023-02-14T02:00:02.435Z,5.55
2023-02-14T02:01:02.827Z,5.42
2023-02-14T02:02:02.417Z,5.38
2023-02-14T02:03:02.429Z,5.35
2023-02-14T02:04:02.363Z,5.33
2023-02-14T02:05:02.366Z,5.26
2023-02-14T02:06:02.327Z,5.35
2023-02-14T02:07:02.317Z,5.32
2023-02-14T02:08:02.325Z,5.38
2023-02-14T02:09:02.284Z,5.32
2023-02-14T02:10:02.257Z,5.45
2023-02-14T02:11:02.316Z,5.35
2023-02-14T02:12:02.231Z,5.42
2023-02-14T02:13:02.255Z,5.29
2023-02-14T02:14:02.190Z,5.27
2023-02-14T02:15:02.183Z,5.26
2023-02-14T02:16:02.175Z,5.41
2023-02-14T02:17:02.187Z,5.27
2023-02-14T02:18:02.158Z,5.35
2023-02-14T02:19:02.101Z,5.29
2023-02-14T02:20:02.134Z,5.33
2023-02-14T02:21:02.122Z,5.32
2023-02-14T02:22:02.059Z,5.32
2023-02-14T02:23:02.099Z,5.32
2023-02-14T02:24:02.021Z,5.26
2023-02-14T02:25:01.995Z,5.15
2023-02-14T02:26:01.986Z,5.27
2023-02-14T02:27:01.961Z,5.14
2023-02-14T02:28:01.969Z,5.22
2023-02-14T02:29:01.921Z,5.22
2023-02-14T02:30:28.405Z,5.12
2023-02-14T02:31:02.441Z,5.22
2023-02-14T02:32:02.018Z,5.27
2023-02-14T02:33:01.908Z,5.14
2023-02-14T02:34:01.872Z,5.17
2023-02-14T02:35:01.847Z,5.22
2023-02-14T02:36:01.853Z,5.19
2023-02-14T02:37:01.821Z,5.23
2023-02-14T02:38:01.819Z,5.15
2023-02-14T02:39:01.760Z,5.30
2023-02-14T02:40:01.762Z,5.29
2023-02-14T02:41:02.099Z,5.29
2023-02-14T02:42:01.712Z,5.20
2023-02-14T02:43:01.769Z,5.14
2023-02-14T02:44:03.603Z,5.30
2023-02-14T02:45:01.682Z,5.22
2023-02-14T02:46:01.721Z,5.20
2023-02-14T02:47:01.636Z,5.20
2023-02-14T02:48:01.637Z,5.24
2023-02-14T02:49:01.594Z,5.22
2023-02-14T02:50:01.604Z,5.19
2023-02-14T02:51:01.894Z,5.12
2023-02-14T02:52:01.550Z,5.17
2023-02-14T02:53:01.562Z,5.09
2023-02-14T02:54:01.504Z,5.08
2023-02-14T02:55:01.561Z,5.08
2023-02-14T02:56:01.475Z,5.01
2023-02-14T02:57:01.483Z,5.08
2023-02-14T02:58:01.475Z,5.12
2023-02-14T02:59:01.434Z,5.11
2023-02-14T03:00:01.420Z,5.15
2023-02-14T03:01:01.820Z,5.14
2023-02-14T03:02:01.377Z,5.08
2023-02-14T03:03:01.417Z,5.19
2023-02-14T03:04:01.327Z,5.12
2023-02-14T03:05:01.424Z,5.04
2023-02-14T03:06:01.326Z,5.15
2023-02-14T03:07:01.404Z,5.08
2023-02-14T03:08:01.303Z,5.12
2023-02-14T03:09:01.261Z,5.14
2023-02-14T03:10:01.220Z,5.11
2023-02-14T03:11:01.525Z,5.20
2023-02-14T03:12:01.202Z,5.17
2023-02-14T03:13:01.385Z,5.14
2023-02-14T03:14:01.186Z,5.12
2023-02-14T03:15:01.143Z,5.24
2023-02-14T03:16:01.177Z,5.23
2023-02-14T03:17:01.104Z,5.22
2023-02-14T03:18:01.116Z,5.23
2023-02-14T03:19:01.115Z,5.23
2023-02-14T03:20:01.155Z,5.19
2023-02-14T03:21:01.319Z,5.26
2023-02-14T03:22:01.037Z,5.14
2023-02-14T03:23:01.001Z,5.20
2023-02-14T03:24:01.024Z,5.29
2023-02-14T03:25:00.971Z,5.27
2023-02-14T03:26:00.989Z,5.29
2023-02-14T03:27:00.934Z,5.22
2023-02-14T03:28:00.925Z,5.26
2023-02-14T03:29:00.930Z,5.26
2023-02-14T03:30:00.952Z,5.32
2023-02-14T03:31:01.313Z,5.19
2023-02-14T03:32:00.978Z,5.23
2023-02-14T03:33:00.843Z,5.17
2023-02-14T03:34:00.849Z,5.23
2023-02-14T03:35:00.796Z,5.26
2023-02-14T03:36:00.778Z,5.22
2023-02-14T03:37:00.801Z,5.23
2023-02-14T03:38:00.738Z,5.22
2023-02-14T03:39:00.756Z,5.22
2023-02-14T03:40:00.702Z,5.14
2023-02-14T03:41:01.088Z,5.17
2023-02-14T03:42:00.679Z,5.20
2023-02-14T03:43:00.678Z,5.05
2023-02-14T03:44:00.730Z,5.11
2023-02-14T03:45:00.693Z,5.06
2023-02-14T03:46:00.624Z,5.12
2023-02-14T03:47:00.614Z,5.05
2023-02-14T03:48:00.584Z,5.06
2023-02-14T03:49:00.590Z,5.08
2023-02-14T03:50:00.546Z,5.14
2023-02-14T03:51:00.788Z,5.08
2023-02-14T03:52:00.508Z,5.04
2023-02-14T03:53:00.491Z,4.99
2023-02-14T03:54:00.507Z,5.02
2023-02-14T03:55:00.474Z,5.09
2023-02-14T03:56:00.452Z,4.91
2023-02-14T03:57:00.417Z,4.97
2023-02-14T03:58:00.418Z,5.05
2023-02-14T03:59:00.435Z,4.96
2023-02-14T04:00:00.558Z,4.93
2023-02-14T04:01:00.986Z,4.80
2023-02-14T04:02:00.373Z,4.88
2023-02-14T04:03:00.318Z,4.74
2023-02-14T04:04:00.345Z,4.84
2023-02-14T04:05:00.302Z,4.79
2023-02-14T04:06:00.283Z,4.75
2023-02-14T04:07:00.247Z,4.72
2023-02-14T04:08:00.232Z,4.72
2023-02-14T04:09:00.299Z,4.69
2023-02-14T04:10:00.191Z,4.67
2023-02-14T04:11:00.548Z,4.68
2023-02-14T04:12:00.161Z,4.75
2023-02-14T04:13:00.170Z,4.65
2023-02-14T04:14:00.165Z,4.67
2023-02-14T04:15:00.156Z,4.65
2023-02-14T04:16:00.190Z,4.77
2023-02-14T04:17:00.094Z,4.67
2023-02-14T04:18:00.058Z,4.67
2023-02-14T04:19:00.108Z,4.65
2023-02-14T04:20:00.023Z,4.57
2023-02-14T04:21:00.370Z,4.59
2023-02-14T04:22:00.017Z,4.59
2023-02-14T04:23:01.359Z,4.53
2023-02-14T04:23:59.986Z,4.61
2023-02-14T04:24:59.938Z,4.56
2023-02-14T04:25:59.918Z,4.54
2023-02-14T04:26:59.901Z,4.62
2023-02-14T04:27:59.896Z,4.59
2023-02-14T04:28:59.924Z,4.65
2023-02-14T04:29:59.913Z,4.67
2023-02-14T04:31:00.233Z,4.57
2023-02-14T04:32:00.026Z,4.57
2023-02-14T04:32:59.794Z,4.62
2023-02-14T04:33:59.823Z,4.51
2023-02-14T04:34:59.770Z,4.54
2023-02-14T04:35:59.775Z,4.51
2023-02-14T04:36:59.729Z,4.51
2023-02-14T04:37:59.726Z,4.53
2023-02-14T04:38:59.759Z,4.50
2023-02-14T04:39:59.686Z,4.54
2023-02-14T04:40:59.956Z,4.59
2023-02-14T04:41:59.641Z,4.44
2023-02-14T04:42:59.637Z,4.53
2023-02-14T04:43:59.697Z,4.49
2023-02-14T04:44:59.620Z,4.42
2023-02-14T04:45:59.593Z,4.54
2023-02-14T04:46:59.589Z,4.46
2023-02-14T04:47:59.566Z,4.39
2023-02-14T04:48:59.706Z,4.50
2023-02-14T04:49:59.525Z,4.36
2023-02-14T04:50:59.816Z,4.39
2023-02-14T04:51:59.484Z,4.49
2023-02-14T04:52:59.808Z,4.29
2023-02-14T04:53:59.470Z,4.42
2023-02-14T04:54:59.425Z,4.51
2023-02-14T04:55:59.426Z,4.43
2023-02-14T04:56:59.402Z,4.42
2023-02-14T04:57:59.442Z,4.35
2023-02-14T04:58:59.442Z,4.42
2023-02-14T04:59:59.348Z,4.44
2023-02-14T05:00:59.757Z,4.42
2023-02-14T05:01:59.348Z,4.42
2023-02-14T05:02:59.305Z,4.39
2023-02-14T05:03:59.303Z,4.56
2023-02-14T05:04:59.260Z,4.39
2023-02-14T05:05:59.246Z,4.47
2023-02-14T05:06:59.214Z,4.36
2023-02-14T05:07:59.202Z,4.38
2023-02-14T05:08:59.220Z,4.46
2023-02-14T05:09:59.173Z,4.42
2023-02-14T05:10:59.652Z,4.34
2023-02-14T05:11:59.158Z,4.24
2023-02-14T05:12:59.140Z,4.26
2023-02-14T05:13:59.131Z,4.24
2023-02-14T05:14:59.089Z,4.16
2023-02-14T05:15:59.130Z,4.24
2023-02-14T05:16:59.050Z,4.16
2023-02-14T05:17:59.027Z,4.24
2023-02-14T05:18:59.084Z,4.25
2023-02-14T05:19:58.997Z,4.18
2023-02-14T05:20:59.264Z,4.28
2023-02-14T05:21:58.968Z,4.31
2023-02-14T05:22:58.970Z,4.28
2023-02-14T05:23:58.952Z,4.29
2023-02-14T05:24:58.916Z,4.28
2023-02-14T05:25:58.910Z,4.32
2023-02-14T05:26:58.869Z,4.18
2023-02-14T05:27:58.854Z,4.34
2023-02-14T05:28:58.879Z,4.26
2023-02-14T05:29:58.877Z,4.20
2023-02-14T05:30:59.385Z,4.21
2023-02-14T05:31:58.899Z,4.24
2023-02-14T05:32:58.794Z,4.31
2023-02-14T05:33:58.801Z,4.18
2023-02-14T05:35:00.984Z,4.13
2023-02-14T05:35:59.722Z,4.25
2023-02-14T05:36:58.715Z,4.17
2023-02-14T05:37:58.702Z,4.20
2023-02-14T05:38:58.720Z,4.17
2023-02-14T05:39:58.643Z,4.25
2023-02-14T05:40:59.031Z,4.25
2023-02-14T05:41:59.516Z,4.20
2023-02-14T05:42:59.590Z,4.17
2023-02-14T05:43:58.684Z,4.26
2023-02-14T05:44:58.552Z,4.29
2023-02-14T05:45:58.629Z,4.35
2023-02-14T05:46:58.535Z,4.28
2023-02-14T05:47:58.650Z,4.31
2023-02-14T05:48:58.520Z,4.32
2023-02-14T05:49:58.473Z,4.28
2023-02-14T05:50:58.713Z,4.31
2023-02-14T05:51:58.471Z,4.25
2023-02-14T05:52:58.437Z,4.25
2023-02-14T05:53:58.435Z,4.21
2023-02-14T05:54:58.391Z,4.28
2023-02-14T05:55:58.380Z,4.31
2023-02-14T05:56:58.355Z,4.25
2023-02-14T05:57:58.329Z,4.24
2023-02-14T05:58:58.345Z,4.21
2023-02-14T05:59:58.343Z,4.24
2023-02-14T06:00:58.660Z,4.32
2023-02-14T06:01:58.265Z,4.25
2023-02-14T06:02:58.264Z,4.25
2023-02-14T06:03:58.281Z,4.26
2023-02-14T06:04:58.339Z,4.21
2023-02-14T06:05:58.204Z,4.28
2023-02-14T06:06:58.200Z,4.18
2023-02-14T06:07:58.186Z,4.26
2023-02-14T06:08:58.229Z,4.34
2023-02-14T06:09:58.175Z,4.28
2023-02-14T06:10:58.433Z,4.36
2023-02-14T06:11:58.117Z,4.32
2023-02-14T06:12:58.080Z,4.32
2023-02-14T06:13:58.116Z,4.29
2023-02-14T06:14:58.057Z,4.29
2023-02-14T06:15:58.029Z,4.38
2023-02-14T06:16:58.055Z,4.31
2023-02-14T06:17:57.998Z,4.28
2023-02-14T06:18:57.982Z,4.25
2023-02-14T06:19:58.018Z,4.25
2023-02-14T06:20:58.297Z,4.31
2023-02-14T06:21:57.926Z,4.21
2023-02-14T06:22:57.919Z,4.18
2023-02-14T06:23:57.943Z,4.18
2023-02-14T06:24:57.890Z,4.13
2023-02-14T06:25:57.873Z,4.21
2023-02-14T06:26:57.855Z,4.13
2023-02-14T06:27:57.870Z,4.21
2023-02-14T06:28:57.834Z,4.18
2023-02-14T06:29:57.881Z,4.17
2023-02-14T06:30:57.999Z,4.17
2023-02-14T06:31:57.901Z,4.08
2023-02-14T06:32:57.735Z,4.20
2023-02-14T06:33:57.719Z,4.08
2023-02-14T06:34:57.741Z,4.16
2023-02-14T06:35:57.681Z,4.10
2023-02-14T06:36:57.669Z,4.04
2023-02-14T06:37:57.667Z,3.98
2023-02-14T06:38:57.661Z,4.02
2023-02-14T06:39:57.652Z,4.08
2023-02-14T06:40:59.772Z,3.96
2023-02-14T06:41:57.599Z,3.93
2023-02-14T06:42:57.558Z,3.93
2023-02-14T06:43:57.587Z,3.98
2023-02-14T06:44:57.577Z,3.89
2023-02-14T06:45:57.572Z,3.89
2023-02-14T06:46:57.579Z,3.96
2023-02-14T06:47:57.487Z,3.90
2023-02-14T06:48:57.459Z,3.93
2023-02-14T06:49:57.471Z,3.92
2023-02-14T06:50:57.879Z,3.84
2023-02-14T06:51:57.413Z,3.93
2023-02-14T06:52:57.386Z,4.04
2023-02-14T06:53:57.395Z,4.04
2023-02-14T06:54:57.391Z,3.95
2023-02-14T06:55:57.342Z,3.96
2023-02-14T06:56:57.356Z,4.07
2023-02-14T06:57:57.305Z,4.10
2023-02-14T06:58:57.315Z,4.10
2023-02-14T06:59:57.318Z,3.98
2023-02-14T07:00:57.423Z,4.07
2023-02-14T07:01:57.233Z,4.11
2023-02-14T07:02:57.381Z,4.10
2023-02-14T07:03:57.196Z,4.17
2023-02-14T07:04:57.208Z,4.18
2023-02-14T07:05:57.157Z,4.29
2023-02-14T07:06:57.154Z,4.39
2023-02-14T07:07:57.193Z,4.39
2023-02-14T07:08:57.127Z,4.44
2023-02-14T07:09:57.123Z,4.42
2023-02-14T07:10:57.174Z,4.36
2023-02-14T07:11:57.063Z,4.38
2023-02-14T07:12:57.042Z,4.38
2023-02-14T07:13:57.020Z,4.49
2023-02-14T07:14:57.174Z,4.53
2023-02-14T07:15:57.024Z,4.59
2023-02-14T07:16:56.982Z,4.56
2023-02-14T07:17:56.952Z,4.56
2023-02-14T07:18:56.958Z,4.51
2023-02-14T07:19:56.984Z,4.79
2023-02-14T07:20:56.923Z,5.24
2023-02-14T07:21:56.912Z,6.02
2023-02-14T07:22:56.876Z,6.76
2023-02-14T07:23:56.862Z,7.07
2023-02-14T07:24:56.897Z,7.21
2023-02-14T07:25:56.823Z,7.37
2023-02-14T07:26:56.813Z,7.67
2023-02-14T07:27:56.786Z,7.54
2023-02-14T07:28:56.784Z,7.73
2023-02-14T07:29:56.800Z,8.29
2023-02-14T07:30:56.826Z,8.98
2023-02-14T07:31:56.792Z,9.75
2023-02-14T07:32:56.739Z,10.20
2023-02-14T07:33:56.699Z,10.65
2023-02-14T07:34:56.717Z,10.84
2023-02-14T07:35:56.705Z,11.02
2023-02-14T07:36:56.645Z,11.03
2023-02-14T07:37:56.632Z,11.41
2023-02-14T07:38:56.603Z,11.72
2023-02-14T07:39:56.661Z,11.90
2023-02-14T07:40:56.657Z,11.93
2023-02-14T07:41:56.552Z,12.19
2023-02-14T07:42:56.554Z,12.30
2023-02-14T07:43:56.528Z,12.49
2023-02-14T07:44:56.538Z,12.58
2023-02-14T07:45:56.615Z,12.80
2023-02-14T07:46:56.474Z,13.22
2023-02-14T07:47:56.472Z,13.31
2023-02-14T07:48:56.432Z,13.24
2023-02-14T07:49:56.441Z,13.12
2023-02-14T07:50:56.392Z,13.32
2023-02-14T07:51:56.402Z,13.36
2023-02-14T07:52:56.369Z,13.50
2023-02-14T07:53:56.377Z,13.57
2023-02-14T07:54:56.365Z,13.38
2023-02-14T07:55:56.312Z,13.19
2023-02-14T07:56:56.313Z,13.24
2023-02-14T07:57:56.272Z,13.31
2023-02-14T07:58:56.276Z,13.32
2023-02-14T07:59:56.264Z,13.50
2023-02-14T08:00:56.270Z,13.94
2023-02-14T08:01:56.297Z,13.96
2023-02-14T08:02:56.215Z,14.17
2023-02-14T08:03:56.175Z,14.13
2023-02-14T08:04:56.237Z,14.53
2023-02-14T08:05:56.160Z,14.80
2023-02-14T08:06:56.141Z,14.94
2023-02-14T08:07:56.760Z,14.91
2023-02-14T08:08:56.102Z,14.72
2023-02-14T08:09:56.364Z,14.61
2023-02-14T08:10:56.056Z,14.86
2023-02-14T08:11:56.042Z,14.49
2023-02-14T08:12:56.022Z,14.60
2023-02-14T08:13:56.050Z,14.87
2023-02-14T08:14:56.032Z,15.16
2023-02-14T08:15:56.032Z,15.58
2023-02-14T08:16:55.961Z,15.74
2023-02-14T08:17:55.981Z,16.33
2023-02-14T08:18:55.962Z,16.08
2023-02-14T08:19:55.998Z,16.47
2023-02-14T08:20:55.880Z,16.51
2023-02-14T08:21:55.898Z,16.95
2023-02-14T08:22:55.882Z,17.05
2023-02-14T08:23:55.869Z,17.40
2023-02-14T08:24:55.882Z,17.07
2023-02-14T08:25:55.798Z,17.42
2023-02-14T08:26:56.779Z,17.53
2023-02-14T08:27:55.779Z,18.14
2023-02-14T08:28:55.890Z,18.54
2023-02-14T08:29:55.821Z,18.65
2023-02-14T08:30:55.833Z,18.84
2023-02-14T08:32:28.235Z,18.99
2023-02-14T08:32:55.770Z,18.74
2023-02-14T08:33:55.658Z,18.11
2023-02-14T08:34:55.681Z,18.07
2023-02-14T08:35:55.630Z,17.99
2023-02-14T08:36:55.769Z,17.95
2023-02-14T08:37:55.661Z,18.07
2023-02-14T08:38:55.580Z,17.94
2023-02-14T08:39:55.658Z,18.10
2023-02-14T08:40:55.567Z,18.29
2023-02-14T08:41:55.547Z,18.32
2023-02-14T08:42:55.545Z,18.35
2023-02-14T08:43:55.520Z,18.32
2023-02-14T08:44:55.524Z,18.53
2023-02-14T08:45:55.515Z,18.91
2023-02-14T08:46:55.592Z,18.93
2023-02-14T08:47:55.439Z,19.15
2023-02-14T08:48:55.428Z,19.02
2023-02-14T08:49:55.426Z,18.94
2023-02-14T08:50:55.439Z,19.21
2023-02-14T08:51:55.372Z,19.23
2023-02-14T08:52:55.342Z,19.43
2023-02-14T08:53:55.347Z,19.38
2023-02-14T08:54:55.382Z,19.67
2023-02-14T08:55:55.306Z,19.24
2023-02-14T08:56:55.312Z,19.13
2023-02-14T08:57:55.281Z,18.79
2023-02-14T08:58:55.241Z,18.72
2023-02-14T08:59:55.290Z,18.49
2023-02-14T09:00:55.265Z,18.29
2023-02-14T09:01:55.208Z,17.70
2023-02-14T09:02:55.183Z,17.22
2023-02-14T09:03:55.226Z,17.36
2023-02-14T09:04:55.186Z,17.58
2023-02-14T09:05:55.149Z,16.96
2023-02-14T09:06:55.110Z,16.81
2023-02-14T09:07:55.112Z,16.70
2023-02-14T09:08:55.277Z,16.96
2023-02-14T09:09:55.082Z,17.40
2023-02-14T09:10:55.080Z,17.09
2023-02-14T09:11:55.039Z,17.74
2023-02-14T09:12:55.010Z,18.04
2023-02-14T09:13:55.007Z,18.51
2023-02-14T09:14:54.987Z,18.57
2023-02-14T09:15:55.124Z,18.91
2023-02-14T09:16:55.054Z,19.28
2023-02-14T09:17:54.953Z,19.71
2023-02-14T09:18:55.045Z,19.76
2023-02-14T09:19:54.890Z,19.62
2023-02-14T09:20:54.974Z,19.32
2023-02-14T09:21:54.940Z,19.07
2023-02-14T09:22:54.865Z,19.25
2023-02-14T09:23:54.858Z,19.35
2023-02-14T09:24:55.013Z,19.07
2023-02-14T09:25:54.867Z,19.31
2023-02-14T09:26:54.823Z,19.43
2023-02-14T09:27:54.780Z,19.39
2023-02-14T09:28:54.775Z,19.46
2023-02-14T09:29:54.816Z,19.72
2023-02-14T09:30:54.820Z,19.92
2023-02-14T09:31:54.826Z,20.30
2023-02-14T09:32:54.713Z,20.35
2023-02-14T09:33:54.695Z,19.92
2023-02-14T09:34:54.686Z,20.00
2023-02-14T09:35:54.676Z,20.02
2023-02-14T09:36:54.655Z,20.37
2023-02-14T09:37:54.626Z,20.31
2023-02-14T09:38:54.589Z,19.97
2023-02-14T09:39:55.591Z,20.08
2023-02-14T09:40:54.622Z,19.86
2023-02-14T09:41:54.558Z,19.94
2023-02-14T09:42:54.560Z,19.60
2023-02-14T09:43:54.519Z,19.39
2023-02-14T09:44:54.536Z,19.21
2023-02-14T09:45:54.620Z,19.20
2023-02-14T09:46:54.502Z,19.50
2023-02-14T09:47:54.464Z,19.70
2023-02-14T09:48:54.500Z,19.85
2023-02-14T09:49:54.490Z,20.07
2023-02-14T09:50:54.476Z,20.13
2023-02-14T09:51:54.432Z,20.16
2023-02-14T09:52:54.391Z,20.22
2023-02-14T09:53:54.381Z,20.17
2023-02-14T09:54:54.373Z,20.13
2023-02-14T09:55:54.387Z,20.00
2023-02-14T09:56:54.350Z,19.85
2023-02-14T09:57:54.312Z,19.80
2023-02-14T09:58:54.401Z,20.04
2023-02-14T09:59:54.276Z,20.34
2023-02-14T10:00:55.357Z,20.37
2023-02-14T10:01:54.319Z,20.26
2023-02-14T10:02:54.250Z,20.37
2023-02-14T10:03:54.220Z,20.46
2023-02-14T10:04:54.195Z,20.69
2023-02-14T10:05:54.236Z,20.85
2023-02-14T10:06:54.179Z,20.96
2023-02-14T10:07:54.173Z,20.93
2023-02-14T10:08:54.150Z,20.96
2023-02-14T10:09:54.137Z,21.11
2023-02-14T10:10:54.164Z,21.22
2023-02-14T10:11:54.093Z,21.58
2023-02-14T10:12:54.116Z,21.73
2023-02-14T10:13:54.069Z,21.58
2023-02-14T10:14:54.068Z,21.77
2023-02-14T10:15:54.078Z,21.79
2023-02-14T10:16:54.119Z,21.73
2023-02-14T10:17:54.005Z,21.30
2023-02-14T10:18:53.988Z,20.87
2023-02-14T10:19:53.988Z,21.21
2023-02-14T10:20:54.001Z,21.43
2023-02-14T10:21:53.954Z,21.77
2023-02-14T10:22:53.959Z,21.11
2023-02-14T10:23:53.939Z,21.31
2023-02-14T10:24:53.913Z,21.13
2023-02-14T10:25:53.979Z,20.79
2023-02-14T10:26:53.865Z,20.81
2023-02-14T10:27:53.939Z,21.11
2023-02-14T10:28:53.898Z,21.38
2023-02-14T10:29:53.900Z,21.33
2023-02-14T10:30:53.884Z,21.18
2023-02-14T10:31:53.833Z,21.55
2023-02-14T10:32:53.804Z,21.77
2023-02-14T10:33:56.417Z,22.08
2023-02-14T10:34:53.742Z,22.09
2023-02-14T10:35:53.764Z,22.17
2023-02-14T10:36:53.722Z,21.85
2023-02-14T10:37:53.710Z,21.71
2023-02-14T10:38:53.743Z,21.63
2023-02-14T10:39:53.681Z,21.77
2023-02-14T10:40:53.697Z,21.85
2023-02-14T10:41:53.652Z,21.77
2023-02-14T10:42:53.632Z,21.61
2023-02-14T10:43:53.630Z,21.49
2023-02-14T10:44:53.613Z,21.63
2023-02-14T10:45:53.656Z,21.75
2023-02-14T10:46:53.568Z,21.71
2023-02-14T10:47:53.570Z,21.83
2023-02-14T10:48:53.549Z,21.19
2023-02-14T10:49:53.545Z,20.34
2023-02-14T10:50:53.544Z,20.48
2023-02-14T10:51:53.495Z,20.58
2023-02-14T10:52:53.507Z,20.71
2023-02-14T10:53:53.514Z,20.96
2023-02-14T10:54:53.466Z,21.00
2023-02-14T10:55:53.483Z,20.72
2023-02-14T10:56:53.428Z,20.50
2023-02-14T10:57:53.415Z,20.16
2023-02-14T10:58:53.414Z,20.35
2023-02-14T10:59:53.400Z,20.17
2023-02-14T11:00:53.464Z,20.31
2023-02-14T11:01:53.342Z,20.73
2023-02-14T11:02:53.329Z,20.60
2023-02-14T11:03:53.402Z,20.04
2023-02-14T11:04:53.324Z,20.08
2023-02-14T11:05:53.313Z,20.15
2023-02-14T11:06:53.272Z,20.37
2023-02-14T11:07:53.260Z,20.66
2023-02-14T11:08:54.640Z,20.73
2023-02-14T11:09:53.263Z,20.56
2023-02-14T11:10:53.256Z,20.02
2023-02-14T11:11:53.192Z,19.34
2023-02-14T11:12:53.202Z,19.38
2023-02-14T11:13:53.161Z,19.67
2023-02-14T11:14:53.151Z,19.86
2023-02-14T11:15:53.176Z,19.65
2023-02-14T11:16:53.171Z,19.85
2023-02-14T11:17:53.149Z,19.86
2023-02-14T11:18:53.083Z,20.01
2023-02-14T11:19:53.081Z,20.15
2023-02-14T11:20:53.091Z,20.15
2023-02-14T11:21:53.050Z,19.50
2023-02-14T11:22:53.038Z,19.35
2023-02-14T11:23:53.031Z,19.10
2023-02-14T11:24:53.020Z,18.69
2023-02-14T11:25:53.033Z,18.36
2023-02-14T11:26:52.993Z,18.26
2023-02-14T11:27:52.946Z,18.17
2023-02-14T11:28:52.940Z,18.32
2023-02-14T11:29:53.188Z,18.56
2023-02-14T11:30:52.968Z,18.64
2023-02-14T11:31:53.102Z,18.94
2023-02-14T11:32:52.862Z,18.13
2023-02-14T11:33:52.999Z,17.81
2023-02-14T11:34:52.854Z,17.73
2023-02-14T11:35:52.851Z,18.02
2023-02-14T11:36:52.810Z,18.38
2023-02-14T11:37:52.795Z,18.60
2023-02-14T11:38:52.766Z,18.60
2023-02-14T11:39:52.762Z,18.31
2023-02-14T11:40:52.813Z,18.10
2023-02-14T11:41:52.723Z,17.89
2023-02-14T11:43:02.132Z,17.81
2023-02-14T11:43:54.728Z,17.32
2023-02-14T11:44:52.714Z,17.18
2023-02-14T11:45:52.723Z,16.88
2023-02-14T11:46:53.849Z,16.18
2023-02-14T11:47:53.640Z,15.92
2023-02-14T11:48:52.620Z,15.77
2023-02-14T11:49:52.615Z,15.53
2023-02-14T11:50:52.579Z,15.37
2023-02-14T11:51:52.609Z,14.74
2023-02-14T11:52:52.551Z,14.46
2023-02-14T11:53:52.549Z,14.20
2023-02-14T11:54:52.521Z,14.19
2023-02-14T11:55:52.500Z,14.08
2023-02-14T11:56:52.520Z,13.76
2023-02-14T11:57:52.470Z,13.75
2023-02-14T11:58:52.478Z,13.81
2023-02-14T11:59:52.439Z,13.76
2023-02-14T12:00:52.422Z,13.54
2023-02-14T12:01:52.456Z,13.36
2023-02-14T12:02:52.381Z,13.43
2023-02-14T12:03:52.402Z,13.46
2023-02-14T12:04:52.355Z,13.59
2023-02-14T12:05:52.330Z,13.48
2023-02-14T12:06:52.339Z,13.44
2023-02-14T12:07:52.299Z,13.43
2023-02-14T12:08:52.293Z,13.29
2023-02-14T12:09:52.252Z,13.27
2023-02-14T12:10:52.248Z,13.04
2023-02-14T12:11:52.256Z,12.89
2023-02-14T12:12:52.216Z,12.84
2023-02-14T12:13:52.186Z,12.71
2023-02-14T12:14:52.180Z,12.67
2023-02-14T12:15:52.181Z,12.37
2023-02-14T12:16:52.160Z,12.26
2023-02-14T12:17:52.146Z,12.29
2023-02-14T12:18:52.115Z,12.07
2023-02-14T12:19:52.089Z,12.03
2023-02-14T12:20:52.069Z,12.08
2023-02-14T12:21:52.093Z,12.15
2023-02-14T12:22:52.065Z,12.21
2023-02-14T12:23:52.037Z,12.25
2023-02-14T12:24:51.996Z,12.41
2023-02-14T12:25:51.982Z,12.40
2023-02-14T12:26:52.012Z,12.48
2023-02-14T12:27:51.947Z,12.23
2023-02-14T12:28:51.923Z,12.01
2023-02-14T12:29:51.978Z,11.98
2023-02-14T12:30:51.976Z,11.75
2023-02-14T12:31:52.016Z,11.56
2023-02-14T12:32:51.850Z,11.62
2023-02-14T12:33:51.840Z,11.57
2023-02-14T12:34:51.828Z,11.46
2023-02-14T12:35:51.813Z,11.41
2023-02-14T12:36:51.829Z,11.39
2023-02-14T12:37:59.281Z,11.39
2023-02-14T12:38:53.759Z,11.39
2023-02-14T12:39:51.750Z,11.27
2023-02-14T12:40:51.722Z,11.39
2023-02-14T12:41:51.759Z,11.38
2023-02-14T12:42:51.712Z,11.44
2023-02-14T12:43:51.672Z,11.39
2023-02-14T12:44:51.660Z,11.53
2023-02-14T12:45:51.650Z,11.53
2023-02-14T12:46:51.675Z,11.44
2023-02-14T12:47:51.590Z,11.41
2023-02-14T12:48:52.592Z,11.44
2023-02-14T12:49:51.572Z,11.41
2023-02-14T12:50:51.557Z,11.39
2023-02-14T12:51:51.577Z,11.20
2023-02-14T12:52:51.515Z,11.24
2023-02-14T12:53:51.517Z,11.31
2023-02-14T12:54:51.480Z,11.28
2023-02-14T12:55:51.465Z,11.33
2023-02-14T12:56:51.503Z,11.27
2023-02-14T12:57:52.434Z,11.20
2023-02-14T12:58:51.457Z,11.24
2023-02-14T12:59:51.409Z,11.17
2023-02-14T13:00:51.373Z,11.21
2023-02-14T13:01:51.425Z,11.11
2023-02-14T13:02:51.423Z,11.08
2023-02-14T13:03:51.331Z,10.91
2023-02-14T13:04:52.340Z,10.76
2023-02-14T13:05:51.345Z,10.68
2023-02-14T13:06:51.313Z,10.63